• Join FlightAware (Why Join?)
  • Login
  • US Flag 
10:41PM EST


 

Airport Tracker/Info


-or-


 

Live Flight TrackerFlight Track Log ✈ MSR45 ✈ 19-Jul-2013 ✈ HEGN / HRG - HECA / CAI

Flight Track Log - Related Links

Times and Time Zones

All times are in EDT time to prevent confusion due to time zone crossing. See the MSR45 flight status page for this flight to view local times or setup timezone preferences in your user account.

Time Position Orientation Groundspeed Altitude Reporting Facility
EDT Latitude Longitude Course Direction KTS MPH feet Rate Location/Type
06:22PM 27.2977 33.7055 325° Northwest  Level Estimated
06:23PM 27.3569 33.6588 325° Northwest  Level Estimated
06:24PM 27.4161 33.6121 325° Northwest  Level Estimated
06:25PM 27.4753 33.5654 325° Northwest  Level Estimated
06:26PM 27.5344 33.5186 325° Northwest  Level Estimated
06:27PM 27.5935 33.4717 325° Northwest  Level Estimated
06:28PM 27.6527 33.4248 325° Northwest  Level Estimated
06:29PM 27.7118 33.3778 325° Northwest  Level Estimated
06:30PM 27.7709 33.3308 325° Northwest  Level Estimated
06:31PM 27.8299 33.2838 325° Northwest  Level Estimated
06:32PM 27.8890 33.2366 325° Northwest  Level Estimated
06:33PM 27.9480 33.1895 325° Northwest  Level Estimated
06:34PM 28.0070 33.1423 325° Northwest  Level Estimated
06:35PM 28.0660 33.0950 325° Northwest  Level Estimated
06:36PM 28.1250 33.0477 325° Northwest  Level Estimated
06:37PM 28.1840 33.0003 325° Northwest  Level Estimated
06:38PM 28.2430 32.9529 325° Northwest  Level Estimated
06:39PM 28.3019 32.9054 325° Northwest  Level Estimated
06:40PM 28.3608 32.8579 325° Northwest  Level Estimated
06:41PM 28.4197 32.8103 325° Northwest  Level Estimated
06:42PM 28.4786 32.7627 325° Northwest  Level Estimated
06:43PM 28.5375 32.7150 325° Northwest  Level Estimated
06:44PM 28.5963 32.6672 325° Northwest  Level Estimated
06:45PM 28.6552 32.6194 325° Northwest  Level Estimated
06:46PM 28.7140 32.5716 325° Northwest  Level Estimated
06:47PM 28.7728 32.5237 324° Northwest  Level Estimated
06:48PM 28.8316 32.4757 324° Northwest  Level Estimated
06:49PM 28.8904 32.4277 324° Northwest  Level Estimated
06:50PM 28.9491 32.3797 324° Northwest  Level Estimated
06:51PM 29.0079 32.3316 324° Northwest  Level Estimated
06:52PM 29.0666 32.2834 324° Northwest  Level Estimated
06:53PM 29.1253 32.2351 324° Northwest  Level Estimated
06:54PM 29.1840 32.1869 324° Northwest  Level Estimated
06:55PM 29.2427 32.1385 324° Northwest  Level Estimated
06:56PM 29.3013 32.0901 324° Northwest  Level Estimated
06:57PM 29.3599 32.0417 324° Northwest  Level Estimated
06:58PM 29.4186 31.9932 324° Northwest  Level Estimated
06:59PM 29.4772 31.9446 324° Northwest  Level Estimated
07:00PM 29.5357 31.8960 324° Northwest  Level Estimated
07:01PM 29.5943 31.8473 324° Northwest  Level Estimated
07:02PM 29.6528 31.7986 324° Northwest  Level Estimated
07:03PM 29.7114 31.7498 324° Northwest  Level Estimated
07:04PM 29.7699 31.7010 324° Northwest  Level Estimated
07:05PM 29.8284 31.6521 324° Northwest  Level Estimated
07:06PM 29.8869 31.6031 324° Northwest  Level Estimated
07:07PM 29.9453 31.5541 324° Northwest  Level Estimated
07:08PM 30.0037 31.5050 324° Northwest  Level Estimated
07:09PM 30.0622 31.4559 324° Northwest  Level Estimated
07:10PM 30.1206 31.4067 324° Northwest  Level Estimated
07:11PM 30.1219 31.4056 324° Northwest  Level Estimated
07:12PM 30.1219 31.4056 319° Northwest  Level Estimated
07:13PM 30.1219 31.4056 319° Northwest  Level Estimated
07:14PM 30.1219 31.4056 319° Northwest  Level Estimated
07:15PM 30.1219 31.4056 319° Northwest  Level Estimated
07:16PM 30.1219 31.4056 319° Northwest  Level Estimated
07:17PM 30.1219 31.4056 319° Northwest  Level Estimated
07:18PM 30.1219 31.4056 319° Northwest  Level Estimated
07:19PM 30.1219 31.4056 319° Northwest  Level Estimated
07:20PM 30.1219 31.4056 319° Northwest  Level Estimated
07:21PM 30.1219 31.4056 319° Northwest  Level Estimated
07:22PM 30.1219 31.4056 319° Northwest  Level Estimated
07:23PM 30.1219 31.4056 319° Northwest  Level Estimated
07:24PM 30.1219 31.4056 319° Northwest  Level Estimated
07:25PM 30.1219 31.4056 319° Northwest  Level Estimated
07:26PM 30.1219 31.4056 319° Northwest  Level Estimated